Archival Weather

City

City, United Kingdom (EGLC)

Report from: Monday, July 18, 2022 2:50 PM BST
Current time: Monday, September 26, 2022 4:54 AM BST

Current weather
Weather history
Weather forecast

Temperature36.0°C (96.8°F)
Heat index33.9°C (93.1°F)
Dew point8.0°C (46.4°F)
Winds 7 kts (3.6 m/s, 8.1 mph) Vrb
Winds variableWinds variable from Southeast (140°) to West (280°)
Visibility6.2 mi. (10 km)
Clouds Sky clear
Altimeter30.09 in.Hg (1019 mB)
Relative humidity18 %
Density altitude2,344 ft. (714 m)
Remarks Fully automated report
No clouds detected
Flight conditions Visual Meteorological Conditions
Raw dataEGLC 181350Z AUTO 21007KT 140V280 9999 NCD 36/08 Q1019
An error has occurred. This application may no longer respond until reloaded. Reload 🗙